Malone, Iowa
Current Conditions -  °F | °C
As of 1:35 PM on Friday 24 Oct 2014 (Local Time) from KCWI Reporting Station
Clear Clear  
Wind Chill: 63°   Ceiling: Unl
Heat Index: 63°   Visibility: 10mi
Dew Point: 52°   Wind: 12mph
Humidity: 68%   Direction: 170°S
Pressure: 30.02"   Gusts: NA
Location:  41.8361°N, 90.4777°W
Report Text: KCWI 241835Z 17010KT 10SM CLR 17/11 A3002 RMK AO1
Loading
Personal Weather Stations






























Interactive Weather Map
Tropical Storm Tracking
New forecast layout! Learn more

10-Day Weather Forecast

Advertisements
Track Severe Weather on mobile